Time;durP1;ratioP1;P1;durP2;ratioP2;P2;SDS_P1;SDS_P2;PMS_P1;PMS_P2;Temp;Humidity;BMP_temperature;BMP_pressure;BME280_temperature;BME280_humidity;BME280_pressure;Samples;Min_cycle;Max_cycle;Signal;HPM_P1;HPM_P2
2021/03/09 00:00:13;;;;;;;8.70;6.90;;;1.90;99.90;;;;;;5114541;27;20210;-54
2021/03/09 00:02:40;;;;;;;10.35;7.00;;;1.70;99.90;;;;;;5115302;27;20195;-54
2021/03/09 00:05:06;;;;;;;9.85;7.70;;;1.60;99.90;;;;;;5114856;27;20678;-53
2021/03/09 00:07:32;;;;;;;10.68;6.72;;;1.90;99.90;;;;;;5132109;27;20199;-55
2021/03/09 00:09:59;;;;;;;9.60;6.43;;;1.70;99.90;;;;;;5115128;27;20182;-54
2021/03/09 00:12:25;;;;;;;8.85;6.95;;;1.70;99.90;;;;;;5118920;27;20206;-54
2021/03/09 00:14:51;;;;;;;10.77;7.38;;;1.60;99.90;;;;;;5133168;27;20653;-54
2021/03/09 00:17:17;;;;;;;9.70;6.90;;;1.60;99.90;;;;;;5114519;27;20688;-55
2021/03/09 00:19:42;;;;;;;10.53;7.17;;;1.90;99.90;;;;;;5114229;27;20213;-55
2021/03/09 00:22:08;;;;;;;10.20;6.83;;;1.60;99.90;;;;;;5115019;27;20252;-54
2021/03/09 00:24:33;;;;;;;9.17;6.90;;;1.70;99.90;;;;;;5114420;27;20189;-54
2021/03/09 00:26:59;;;;;;;11.60;7.77;;;1.80;99.90;;;;;;5114608;27;20202;-54
2021/03/09 00:29:25;;;;;;;12.90;7.20;;;1.70;99.90;;;;;;5115133;27;20231;-54
2021/03/09 00:31:50;;;;;;;9.70;7.07;;;1.10;99.90;;;;;;5115088;27;20187;-55
2021/03/09 00:34:16;;;;;;;9.87;7.00;;;1.50;99.90;;;;;;5132788;27;20306;-55
2021/03/09 00:36:42;;;;;;;9.20;6.30;;;1.50;99.90;;;;;;5132742;27;20579;-54
2021/03/09 00:39:07;;;;;;;8.20;6.83;;;1.60;99.90;;;;;;5113918;27;20199;-54
2021/03/09 00:41:33;;;;;;;10.37;7.40;;;1.50;99.90;;;;;;5114032;27;20431;-54
2021/03/09 00:43:59;;;;;;;7.77;6.40;;;1.80;99.90;;;;;;5132963;27;20683;-54
2021/03/09 00:46:24;;;;;;;9.93;7.33;;;1.80;99.90;;;;;;5118215;27;20550;-55
2021/03/09 00:48:50;;;;;;;11.83;6.93;;;1.60;99.90;;;;;;5134983;27;20282;-54
2021/03/09 00:51:15;;;;;;;9.90;6.93;;;1.50;99.90;;;;;;5113846;27;20179;-54
2021/03/09 00:53:41;;;;;;;10.47;7.40;;;1.70;99.90;;;;;;5114044;27;20194;-54
2021/03/09 00:56:07;;;;;;;9.83;6.80;;;1.60;99.90;;;;;;5114305;27;20244;-54
2021/03/09 00:58:32;;;;;;;8.83;7.07;;;1.00;99.90;;;;;;5113951;27;20202;-55
2021/03/09 01:00:58;;;;;;;9.60;7.17;;;1.60;99.90;;;;;;5113770;27;20179;-54
2021/03/09 01:03:24;;;;;;;11.10;7.50;;;1.50;99.90;;;;;;5117350;27;20429;-55
2021/03/09 01:05:49;;;;;;;9.70;7.03;;;1.20;99.90;;;;;;5113971;27;20227;-55
2021/03/09 01:08:15;;;;;;;9.30;6.53;;;1.20;99.90;;;;;;5127289;27;20237;-54
2021/03/09 01:10:42;;;;;;;9.85;7.50;;;1.50;99.90;;;;;;5113736;27;20178;-54
2021/03/09 01:13:08;;;;;;;9.95;7.47;;;1.50;99.90;;;;;;5113601;27;20179;-53
2021/03/09 01:15:33;;;;;;;10.73;7.77;;;1.70;99.90;;;;;;5131207;27;20577;-54
2021/03/09 01:17:59;;;;;;;9.10;6.70;;;1.40;99.90;;;;;;5113322;27;21093;-54
2021/03/09 01:20:25;;;;;;;10.23;7.43;;;1.20;99.90;;;;;;5114386;27;20227;-52
2021/03/09 01:22:50;;;;;;;9.50;6.60;;;1.40;99.90;;;;;;5113328;27;20556;-52
2021/03/09 01:25:16;;;;;;;10.40;7.47;;;1.30;99.90;;;;;;5113988;27;20959;-54
2021/03/09 01:27:41;;;;;;;10.10;6.87;;;1.10;99.90;;;;;;5113378;27;20695;-54
2021/03/09 01:30:10;;;;;;;8.53;6.90;;;1.10;99.90;;;;;;5114085;27;20179;-53
2021/03/09 01:32:36;;;;;;;7.72;6.78;;;1.00;99.90;;;;;;5113675;27;20231;-53
2021/03/09 01:35:04;;;;;;;10.93;7.15;;;1.10;99.90;;;;;;5113805;27;20573;-54
2021/03/09 01:37:30;;;;;;;9.20;7.32;;;1.00;99.90;;;;;;5117355;27;20203;-53
2021/03/09 01:39:55;;;;;;;9.40;7.13;;;1.30;99.90;;;;;;5131918;27;20740;-54
2021/03/09 01:42:21;;;;;;;9.67;7.80;;;0.60;99.90;;;;;;5114219;27;20176;-53
2021/03/09 01:44:47;;;;;;;11.17;7.63;;;1.00;99.90;;;;;;5114019;27;20210;-54
2021/03/09 01:47:14;;;;;;;9.57;7.67;;;1.10;99.90;;;;;;5113833;27;20536;-54
2021/03/09 01:49:40;;;;;;;8.45;6.18;;;1.00;99.90;;;;;;5129307;27;20640;-54
2021/03/09 01:52:08;;;;;;;8.95;7.18;;;1.30;99.90;;;;;;5113806;27;20236;-54
2021/03/09 01:54:34;;;;;;;10.25;8.10;;;1.10;99.90;;;;;;5119134;27;20187;-54
2021/03/09 01:57:01;;;;;;;9.13;6.47;;;1.20;99.90;;;;;;5113100;27;20294;-53
2021/03/09 01:59:27;;;;;;;9.98;7.80;;;0.70;99.90;;;;;;5111312;27;20835;-53
2021/03/09 02:01:53;;;;;;;9.35;7.05;;;1.10;99.90;;;;;;5113568;27;20552;-53
2021/03/09 02:04:19;;;;;;;9.55;7.30;;;1.10;99.90;;;;;;5131446;27;20196;-53
2021/03/09 02:06:44;;;;;;;9.80;6.90;;;1.30;99.90;;;;;;5112791;27;20214;-54
2021/03/09 02:09:11;;;;;;;10.43;8.13;;;1.20;99.90;;;;;;5099320;28;20180;-54
2021/03/09 02:11:47;;;;;;;9.27;7.32;;;1.20;99.90;;;;;;5130048;27;20190;-53
2021/03/09 02:14:47;;;;;;;9.95;7.90;;;1.20;99.90;;;;;;5112472;27;20309;-54
2021/03/09 02:17:45;;;;;;;8.55;6.95;;;1.20;99.90;;;;;;5112450;27;20271;-54
2021/03/09 02:20:45;;;;;;;9.77;6.68;;;1.00;99.90;;;;;;5106735;27;20211;-53
2021/03/09 02:23:31;;;;;;;9.55;7.68;;;0.90;99.90;;;;;;5099435;27;20175;-54
2021/03/09 02:26:37;;;;;;;8.90;7.38;;;0.90;99.90;;;;;;5112466;27;20174;-53
2021/03/09 02:29:41;;;;;;;9.45;8.07;;;0.70;99.90;;;;;;5112964;27;20367;-54
2021/03/09 02:32:15;;;;;;;8.45;7.13;;;1.10;99.90;;;;;;5112374;27;20587;-54
2021/03/09 02:34:47;;;;;;;11.48;7.65;;;1.00;99.90;;;;;;5130888;27;20181;-54
2021/03/09 02:37:15;;;;;;;9.18;7.40;;;0.90;99.90;;;;;;5111661;27;20763;-54
2021/03/09 02:39:48;;;;;;;12.35;7.40;;;1.00;99.90;;;;;;5130559;27;20199;-54
2021/03/09 02:42:21;;;;;;;10.48;7.47;;;0.70;99.90;;;;;;5112688;27;20281;-54
2021/03/09 02:44:47;;;;;;;9.15;7.40;;;0.60;99.90;;;;;;5113018;27;20183;-53
2021/03/09 02:47:14;;;;;;;8.65;6.85;;;0.90;99.90;;;;;;5126490;27;20206;-54
2021/03/09 02:49:43;;;;;;;10.27;7.45;;;1.00;99.90;;;;;;5111821;27;20224;-54
2021/03/09 02:52:18;;;;;;;10.48;7.47;;;0.70;99.90;;;;;;5111805;27;20181;-53
2021/03/09 02:54:45;;;;;;;10.27;7.72;;;0.90;99.90;;;;;;5112060;27;20558;-53
2021/03/09 02:57:12;;;;;;;10.68;6.95;;;0.80;99.90;;;;;;5119383;27;20199;-54
2021/03/09 02:59:40;;;;;;;9.13;7.03;;;0.80;99.90;;;;;;5111920;27;20227;-54
2021/03/09 03:02:06;;;;;;;9.23;7.05;;;0.80;99.90;;;;;;5130332;27;20327;-54
2021/03/09 03:04:32;;;;;;;10.90;7.45;;;0.70;99.90;;;;;;5112044;27;20223;-53
2021/03/09 03:06:59;;;;;;;10.38;7.38;;;0.60;99.90;;;;;;5130200;27;20265;-54
2021/03/09 03:09:26;;;;;;;9.65;7.55;;;0.80;99.90;;;;;;5108396;28;20191;-55
2021/03/09 03:11:53;;;;;;;9.77;7.45;;;0.70;99.90;;;;;;5130212;27;20232;-55
2021/03/09 03:14:21;;;;;;;9.68;7.05;;;0.70;99.90;;;;;;5111603;28;20209;-54
2021/03/09 03:16:47;;;;;;;8.38;7.47;;;0.80;99.90;;;;;;5111310;28;20613;-52
2021/03/09 03:19:14;;;;;;;9.82;7.63;;;0.50;99.90;;;;;;5114092;28;20565;-53
2021/03/09 03:21:41;;;;;;;12.85;7.93;;;0.40;99.90;;;;;;5111822;28;20668;-54
2021/03/09 03:24:09;;;;;;;8.73;7.40;;;0.60;99.90;;;;;;5111666;28;20195;-53
2021/03/09 03:26:40;;;;;;;10.30;8.48;;;0.40;99.90;;;;;;5111553;28;20496;-53
2021/03/09 03:29:07;;;;;;;9.52;7.63;;;0.80;99.90;;;;;;5111701;28;20193;-53
2021/03/09 03:31:36;;;;;;;9.95;7.82;;;0.60;99.90;;;;;;5111274;28;20186;-54
2021/03/09 03:34:03;;;;;;;11.55;8.45;;;0.40;99.90;;;;;;5111711;28;20179;-53
2021/03/09 03:36:32;;;;;;;9.02;7.25;;;0.50;99.90;;;;;;5111704;28;20199;-54
2021/03/09 03:38:57;;;;;;;12.70;8.10;;;0.50;99.90;;;;;;5111073;28;20211;-54
2021/03/09 03:41:23;;;;;;;9.90;7.47;;;0.40;99.90;;;;;;5111239;28;20182;-53
2021/03/09 03:43:49;;;;;;;11.40;8.87;;;0.30;99.90;;;;;;5111487;28;20456;-54
2021/03/09 03:46:15;;;;;;;10.52;7.90;;;0.50;99.90;;;;;;5111159;27;20243;-55
2021/03/09 03:48:42;;;;;;;11.83;8.03;;;0.30;99.90;;;;;;5111257;28;20247;-55
2021/03/09 03:51:12;;;;;;;10.98;7.95;;;0.60;99.90;;;;;;5111269;28;20643;-55
2021/03/09 03:53:50;;;;;;;10.40;8.48;;;0.70;99.90;;;;;;5116537;28;20191;-54
2021/03/09 03:56:52;;;;;;;9.65;7.55;;;0.40;99.90;;;;;;5110878;28;20266;-54
2021/03/09 03:59:29;;;;;;;11.27;7.78;;;0.50;99.90;;;;;;5101303;28;20675;-54
2021/03/09 04:01:55;;;;;;;8.65;7.72;;;0.30;99.90;;;;;;5111222;28;20270;-54
2021/03/09 04:04:24;;;;;;;9.65;7.80;;;0.40;99.90;;;;;;5111302;28;20194;-55
2021/03/09 04:06:53;;;;;;;11.68;7.60;;;0.40;99.90;;;;;;5111015;28;20260;-54
2021/03/09 04:09:20;;;;;;;11.10;8.45;;;0.20;99.90;;;;;;5119679;28;20187;-54
2021/03/09 04:11:47;;;;;;;12.95;8.00;;;-0.10;99.90;;;;;;5111920;28;20183;-54
2021/03/09 04:14:14;;;;;;;11.23;8.23;;;0.40;99.90;;;;;;5115313;27;20231;-53
2021/03/09 04:16:42;;;;;;;10.00;7.00;;;-0.10;99.90;;;;;;5124141;27;20226;-53
2021/03/09 04:19:10;;;;;;;10.30;8.15;;;0.40;99.90;;;;;;5114821;27;20401;-54
2021/03/09 04:21:37;;;;;;;13.30;8.57;;;0.40;99.90;;;;;;5133546;27;20175;-54
2021/03/09 04:24:04;;;;;;;12.65;8.45;;;0.20;99.90;;;;;;5114668;27;20183;-53
2021/03/09 04:26:30;;;;;;;10.85;8.02;;;0.20;99.90;;;;;;5114252;27;20679;-53
2021/03/09 04:28:57;;;;;;;13.45;7.85;;;0.30;99.90;;;;;;5114757;27;20187;-54
2021/03/09 04:31:23;;;;;;;10.23;8.10;;;0.40;99.90;;;;;;5114635;27;20270;-54
2021/03/09 04:33:50;;;;;;;11.30;8.23;;;0.60;99.90;;;;;;5114789;27;20332;-53
2021/03/09 04:36:17;;;;;;;13.15;8.68;;;0.50;99.90;;;;;;5114675;27;20189;-54
2021/03/09 04:38:44;;;;;;;10.65;8.48;;;0.40;99.90;;;;;;5114248;27;20193;-54
2021/03/09 04:41:10;;;;;;;12.23;8.90;;;0.40;99.90;;;;;;5114303;27;20178;-54
2021/03/09 04:43:37;;;;;;;12.90;8.00;;;0.20;99.90;;;;;;5114479;27;20224;-55
2021/03/09 04:46:03;;;;;;;11.05;8.07;;;0.10;99.90;;;;;;5143853;27;20183;-53
2021/03/09 04:48:29;;;;;;;11.80;8.43;;;0.10;99.90;;;;;;5114079;27;20209;-55
2021/03/09 04:51:04;;;;;;;11.85;8.27;;;0.10;99.90;;;;;;5114787;27;20270;-54
2021/03/09 04:53:31;;;;;;;12.02;8.57;;;0.10;99.90;;;;;;5129500;27;20281;-55
2021/03/09 04:55:58;;;;;;;10.50;8.60;;;0.10;99.90;;;;;;5114873;27;20594;-54
2021/03/09 04:58:24;;;;;;;10.63;8.45;;;0.40;99.90;;;;;;5114018;27;20231;-54
2021/03/09 05:00:49;;;;;;;13.60;8.50;;;0.20;99.90;;;;;;5110295;27;20639;-54
2021/03/09 05:03:15;;;;;;;13.00;8.80;;;0.10;99.90;;;;;;5113989;27;20435;-54
2021/03/09 05:05:40;;;;;;;12.90;8.80;;;0.10;99.90;;;;;;5110209;27;20869;-54
2021/03/09 05:08:06;;;;;;;11.37;8.27;;;-0.50;99.90;;;;;;5113994;27;20199;-54
2021/03/09 05:10:32;;;;;;;10.70;8.70;;;0.30;99.90;;;;;;5113446;27;20533;-54
2021/03/09 05:12:58;;;;;;;11.97;8.93;;;-0.10;99.90;;;;;;5113690;27;20191;-53
2021/03/09 05:15:23;;;;;;;12.07;8.77;;;0.20;99.90;;;;;;5114036;27;20217;-53
2021/03/09 05:17:49;;;;;;;12.90;9.40;;;0.00;99.90;;;;;;5113735;27;20908;-54
2021/03/09 05:20:17;;;;;;;11.60;8.60;;;-0.60;99.90;;;;;;5113511;27;20209;-54
2021/03/09 05:22:43;;;;;;;13.77;9.27;;;-0.10;99.90;;;;;;5113681;27;20262;-53
2021/03/09 05:25:11;;;;;;;11.80;9.40;;;0.20;99.90;;;;;;5113311;27;20277;-53
2021/03/09 05:27:39;;;;;;;13.50;9.20;;;-0.60;99.90;;;;;;5113403;27;20503;-54
2021/03/09 05:30:05;;;;;;;15.23;9.70;;;-0.10;99.90;;;;;;5113709;27;20225;-54
2021/03/09 05:32:31;;;;;;;12.98;9.30;;;0.10;99.90;;;;;;5113339;27;20183;-55
2021/03/09 05:34:56;;;;;;;12.93;10.10;;;0.30;99.90;;;;;;5112034;27;20235;-54
2021/03/09 05:37:22;;;;;;;13.43;9.00;;;0.00;99.90;;;;;;5111357;27;20199;-54
2021/03/09 05:39:48;;;;;;;14.50;9.80;;;0.10;99.90;;;;;;5113058;27;20211;-53
2021/03/09 05:42:15;;;;;;;12.97;9.73;;;0.00;99.90;;;;;;5111469;27;20648;-53
2021/03/09 05:44:41;;;;;;;16.98;10.35;;;0.00;99.90;;;;;;5109209;27;20644;-53
2021/03/09 05:47:07;;;;;;;14.47;9.67;;;0.10;99.90;;;;;;5107212;27;20211;-54
2021/03/09 05:49:33;;;;;;;14.77;10.63;;;0.30;99.90;;;;;;5106320;27;20449;-56
2021/03/09 05:52:02;;;;;;;18.95;10.82;;;0.00;99.90;;;;;;5108402;27;20195;-57
2021/03/09 05:54:28;;;;;;;14.60;11.20;;;0.10;99.90;;;;;;5107333;27;20741;-59
2021/03/09 05:56:54;;;;;;;14.00;10.83;;;0.10;99.90;;;;;;5105895;27;20292;-59
2021/03/09 05:59:20;;;;;;;14.55;11.25;;;0.00;99.90;;;;;;5103827;27;20208;-58
2021/03/09 06:01:46;;;;;;;12.50;9.73;;;0.30;99.90;;;;;;5104843;27;20190;-55
2021/03/09 06:04:12;;;;;;;14.27;9.90;;;0.20;99.90;;;;;;5123532;27;20179;-55
2021/03/09 06:06:38;;;;;;;14.53;9.63;;;0.40;99.90;;;;;;5108019;27;20541;-55
2021/03/09 06:09:32;;;;;;;16.17;10.77;;;0.10;99.90;;;;;;5108202;27;20183;-54
2021/03/09 06:12:13;;;;;;;16.52;11.05;;;0.10;99.90;;;;;;5106690;27;20238;-55
2021/03/09 06:14:44;;;;;;;13.93;9.85;;;0.40;99.90;;;;;;5111673;27;20205;-53
2021/03/09 06:17:14;;;;;;;16.52;9.75;;;0.40;99.90;;;;;;5107590;27;20251;-54
2021/03/09 06:19:45;;;;;;;14.45;10.30;;;0.50;99.90;;;;;;5107396;27;20222;-54
2021/03/09 06:22:13;;;;;;;14.35;10.02;;;0.40;99.90;;;;;;5120997;27;20286;-56
2021/03/09 06:24:39;;;;;;;18.40;10.43;;;0.60;99.90;;;;;;5108072;27;20603;-54
2021/03/09 06:27:22;;;;;;;13.77;10.57;;;0.50;99.90;;;;;;5105588;27;20251;-55
2021/03/09 06:29:48;;;;;;;16.90;10.45;;;0.60;99.90;;;;;;5107122;27;20445;-53
2021/03/09 06:32:13;;;;;;;16.17;11.23;;;0.60;99.90;;;;;;5110665;27;20182;-55
2021/03/09 06:34:39;;;;;;;14.30;10.70;;;0.60;99.90;;;;;;5111674;27;20182;-55
2021/03/09 06:37:19;;;;;;;14.43;12.40;;;0.90;99.90;;;;;;5107731;27;20206;-55
2021/03/09 06:39:50;;;;;;;13.35;10.68;;;0.80;99.90;;;;;;5103259;27;20578;-54
2021/03/09 06:42:25;;;;;;;15.25;10.93;;;0.90;99.90;;;;;;5102644;27;20199;-54
2021/03/09 06:44:57;;;;;;;14.10;10.30;;;0.70;99.90;;;;;;5108858;27;20658;-54
2021/03/09 06:47:32;;;;;;;15.27;11.38;;;0.90;99.90;;;;;;5107444;27;20206;-54
2021/03/09 06:49:58;;;;;;;16.25;10.80;;;1.10;99.90;;;;;;5110791;27;20659;-54
2021/03/09 06:52:24;;;;;;;15.88;11.30;;;1.00;99.90;;;;;;5110775;27;20751;-54
2021/03/09 06:54:54;;;;;;;19.95;12.18;;;1.10;99.90;;;;;;5106304;28;20280;-54
2021/03/09 06:57:21;;;;;;;16.38;10.68;;;1.00;99.90;;;;;;5108161;27;20672;-54
2021/03/09 06:59:50;;;;;;;14.45;10.18;;;0.90;99.90;;;;;;5105619;27;20279;-54
2021/03/09 07:02:19;;;;;;;14.15;10.52;;;1.00;99.90;;;;;;5120136;27;20179;-57
2021/03/09 07:04:49;;;;;;;15.60;10.63;;;1.10;99.90;;;;;;5105500;27;20207;-55
2021/03/09 07:07:40;;;;;;;14.73;11.38;;;1.30;99.90;;;;;;5109084;27;20229;-56
2021/03/09 07:10:14;;;;;;;16.48;11.38;;;0.90;99.90;;;;;;5110920;27;20255;-55
2021/03/09 07:12:42;;;;;;;16.05;11.77;;;1.70;99.90;;;;;;5109293;27;20186;-56
2021/03/09 07:15:10;;;;;;;15.05;10.90;;;1.80;99.90;;;;;;5103280;27;20194;-57
2021/03/09 07:17:38;;;;;;;16.60;11.30;;;1.60;99.90;;;;;;5126945;28;20695;-56
2021/03/09 07:20:08;;;;;;;19.42;11.88;;;2.00;99.90;;;;;;5110382;28;20203;-56
2021/03/09 07:22:37;;;;;;;16.00;11.60;;;1.70;99.90;;;;;;5126745;28;20520;-56
2021/03/09 07:25:11;;;;;;;15.65;11.43;;;1.90;99.90;;;;;;5110975;28;20189;-54
2021/03/09 07:27:37;;;;;;;16.77;11.77;;;2.10;99.90;;;;;;5109120;28;20269;-57
2021/03/09 07:30:04;;;;;;;19.40;12.67;;;2.00;99.90;;;;;;5110196;28;20270;-53
2021/03/09 07:32:31;;;;;;;17.08;12.25;;;2.10;99.90;;;;;;5128560;28;20433;-54
2021/03/09 07:34:59;;;;;;;17.08;13.18;;;2.30;99.90;;;;;;5108287;27;20190;-54
2021/03/09 07:37:25;;;;;;;16.13;11.45;;;2.60;99.90;;;;;;5109059;28;20229;-53
2021/03/09 07:39:51;;;;;;;15.73;12.20;;;2.60;99.90;;;;;;5109801;28;20255;-54
2021/03/09 07:42:18;;;;;;;16.88;11.73;;;2.70;99.90;;;;;;5108411;28;20210;-55
2021/03/09 07:44:44;;;;;;;13.93;12.02;;;2.90;99.90;;;;;;5109193;28;20179;-55
2021/03/09 07:47:13;;;;;;;13.68;11.85;;;2.80;99.90;;;;;;5110133;27;20203;-56
2021/03/09 07:49:40;;;;;;;22.10;13.23;;;3.30;99.90;;;;;;5113024;27;20263;-55
2021/03/09 07:52:18;;;;;;;12.68;11.35;;;3.20;99.90;;;;;;5113342;27;20183;-55
2021/03/09 07:55:02;;;;;;;18.88;12.77;;;3.20;99.90;;;;;;5110080;27;20191;-54
2021/03/09 07:57:33;;;;;;;15.55;11.02;;;3.30;99.90;;;;;;5129108;27;20745;-55
2021/03/09 08:00:00;;;;;;;16.98;13.25;;;3.00;99.90;;;;;;5112213;27;20199;-55
2021/03/09 08:02:56;;;;;;;18.83;13.00;;;3.60;99.90;;;;;;5112533;27;20207;-55
2021/03/09 08:05:29;;;;;;;13.63;11.88;;;3.80;99.90;;;;;;5106216;27;20220;-55
2021/03/09 08:08:04;;;;;;;14.80;12.50;;;3.80;99.80;;;;;;5111710;27;20210;-55
2021/03/09 08:10:29;;;;;;;12.80;11.20;;;3.90;99.60;;;;;;5108774;27;20186;-55
2021/03/09 08:13:16;;;;;;;18.80;13.00;;;3.90;99.50;;;;;;5127794;27;20183;-55
2021/03/09 08:15:42;;;;;;;15.85;12.77;;;4.30;99.60;;;;;;5113219;27;20201;-55
2021/03/09 08:18:17;;;;;;;14.68;12.18;;;4.40;98.90;;;;;;5106960;27;20247;-55
2021/03/09 08:20:54;;;;;;;23.25;14.80;;;4.30;98.30;;;;;;5114012;27;20308;-54
2021/03/09 08:23:52;;;;;;;19.20;14.00;;;4.30;98.50;;;;;;5116989;27;20256;-54
2021/03/09 08:26:21;;;;;;;16.63;13.13;;;4.30;98.90;;;;;;5094531;27;20188;-53
2021/03/09 08:28:47;;;;;;;18.38;13.65;;;4.20;98.80;;;;;;5132353;27;20190;-53
2021/03/09 08:31:12;;;;;;;20.23;14.73;;;4.40;98.60;;;;;;5113363;27;20175;-52
2021/03/09 08:33:41;;;;;;;22.63;15.23;;;4.50;98.60;;;;;;5114405;27;20573;-52
2021/03/09 08:36:32;;;;;;;22.92;15.18;;;4.70;98.10;;;;;;5112388;27;20183;-52
2021/03/09 08:39:01;;;;;;;18.90;14.52;;;5.00;97.70;;;;;;5106271;27;20182;-50
2021/03/09 08:41:42;;;;;;;17.98;13.23;;;5.10;97.20;;;;;;5132090;27;20172;-50
2021/03/09 08:44:23;;;;;;;19.27;14.52;;;5.40;97.00;;;;;;5110296;27;20179;-51
2021/03/09 08:47:05;;;;;;;19.23;14.20;;;5.80;96.30;;;;;;5111129;27;20194;-51
2021/03/09 08:49:37;;;;;;;22.52;16.20;;;6.20;95.40;;;;;;5111784;27;20206;-51
2021/03/09 08:52:09;;;;;;;19.83;13.98;;;6.00;95.10;;;;;;5109049;27;20237;-51
2021/03/09 08:54:51;;;;;;;20.92;14.10;;;6.10;95.50;;;;;;5111473;27;20229;-55
2021/03/09 08:57:17;;;;;;;18.70;14.55;;;6.60;94.30;;;;;;5108262;27;20218;-55
2021/03/09 09:00:10;;;;;;;15.37;12.73;;;7.10;93.40;;;;;;5119456;27;20211;-52
2021/03/09 09:02:41;;;;;;;18.73;13.90;;;7.20;93.10;;;;;;5106420;27;20189;-52
2021/03/09 09:05:07;;;;;;;18.08;14.80;;;7.00;92.40;;;;;;5109458;27;20175;-52
2021/03/09 09:07:39;;;;;;;17.95;14.52;;;6.80;92.80;;;;;;5109213;27;20201;-53
2021/03/09 09:10:05;;;;;;;16.42;13.48;;;6.60;93.50;;;;;;5109733;27;22087;-53
2021/03/09 09:12:34;;;;;;;16.87;13.20;;;6.50;93.80;;;;;;5112639;27;20194;-53
2021/03/09 09:15:07;;;;;;;19.38;14.45;;;7.10;93.60;;;;;;5113450;27;20263;-53
2021/03/09 09:17:34;;;;;;;18.13;14.40;;;7.10;93.20;;;;;;5113834;27;20211;-52
2021/03/09 09:20:05;;;;;;;20.45;13.23;;;7.40;91.80;;;;;;5113228;27;20198;-52
2021/03/09 09:22:31;;;;;;;20.75;15.00;;;7.70;91.20;;;;;;5112873;27;20585;-51
2021/03/09 09:24:58;;;;;;;15.52;13.70;;;7.40;91.50;;;;;;5113377;27;20311;-51
2021/03/09 09:27:25;;;;;;;19.33;13.48;;;7.30;91.60;;;;;;5114136;27;20395;-51
2021/03/09 09:29:56;;;;;;;19.35;15.82;;;7.70;91.60;;;;;;5113782;27;20619;-53
2021/03/09 09:32:22;;;;;;;18.02;14.65;;;8.50;90.70;;;;;;5112992;27;20183;-51
2021/03/09 09:34:57;;;;;;;15.00;13.07;;;8.70;89.60;;;;;;5120165;27;20269;-51
2021/03/09 09:37:23;;;;;;;17.23;13.43;;;8.90;88.20;;;;;;5113329;27;20614;-51
2021/03/09 09:39:49;;;;;;;18.50;14.27;;;8.90;87.70;;;;;;5113295;27;20199;-51
2021/03/09 09:42:19;;;;;;;20.70;14.47;;;9.00;86.20;;;;;;5131964;27;20421;-51
2021/03/09 09:44:46;;;;;;;17.13;13.52;;;9.00;86.30;;;;;;5129473;27;20600;-51
2021/03/09 09:47:13;;;;;;;17.92;13.65;;;8.60;86.70;;;;;;5111010;27;20222;-53
2021/03/09 09:49:42;;;;;;;16.40;13.82;;;8.60;86.40;;;;;;5112562;27;20247;-54
2021/03/09 09:52:16;;;;;;;17.58;13.63;;;8.90;87.30;;;;;;5118367;27;20179;-51
2021/03/09 09:54:55;;;;;;;17.23;14.38;;;8.70;86.40;;;;;;5109702;27;20651;-52
2021/03/09 09:57:22;;;;;;;16.42;14.15;;;8.60;86.90;;;;;;5112601;27;20218;-51
2021/03/09 09:59:49;;;;;;;19.30;13.45;;;8.70;86.90;;;;;;5112439;27;20574;-51
2021/03/09 10:02:20;;;;;;;18.58;14.55;;;8.90;86.00;;;;;;5112337;27;20266;-51
2021/03/09 10:04:46;;;;;;;16.60;13.73;;;9.10;85.60;;;;;;5111565;27;20175;-52
2021/03/09 10:07:16;;;;;;;17.70;13.30;;;9.20;85.60;;;;;;5111293;27;20244;-51
2021/03/09 10:09:59;;;;;;;21.60;14.63;;;8.90;85.50;;;;;;5111859;28;20584;-52
2021/03/09 10:12:39;;;;;;;18.48;14.82;;;9.50;84.80;;;;;;5112567;27;20182;-51
2021/03/09 10:15:07;;;;;;;19.10;14.20;;;9.40;83.80;;;;;;5112059;27;20198;-52
2021/03/09 10:17:34;;;;;;;15.10;13.20;;;9.90;83.20;;;;;;5112961;27;20235;-51
2021/03/09 10:19:59;;;;;;;16.85;13.98;;;9.60;81.10;;;;;;5112042;27;20202;-52
2021/03/09 10:22:26;;;;;;;17.53;13.93;;;9.50;81.90;;;;;;5112426;27;20223;-52
2021/03/09 10:24:52;;;;;;;19.63;15.00;;;9.40;82.10;;;;;;5130434;27;20217;-52
2021/03/09 10:27:24;;;;;;;18.50;14.03;;;9.50;82.40;;;;;;5112524;27;20238;-51
2021/03/09 10:29:57;;;;;;;20.77;14.00;;;9.50;81.80;;;;;;5111406;27;20476;-52
2021/03/09 10:32:23;;;;;;;17.48;13.52;;;9.20;82.00;;;;;;5109143;27;20213;-52
2021/03/09 10:34:54;;;;;;;18.27;13.90;;;9.60;82.40;;;;;;5111910;27;20203;-51
2021/03/09 10:37:38;;;;;;;15.77;12.85;;;9.60;81.70;;;;;;5111505;27;20208;-52
2021/03/09 10:40:09;;;;;;;14.27;12.10;;;9.50;82.00;;;;;;5112458;27;20470;-52
2021/03/09 10:42:40;;;;;;;15.90;12.77;;;9.50;81.00;;;;;;5130926;27;20176;-52
2021/03/09 10:45:26;;;;;;;17.95;14.48;;;9.20;81.60;;;;;;5111649;27;20297;-52
2021/03/09 10:47:57;;;;;;;16.05;13.27;;;9.40;83.50;;;;;;5111214;27;20195;-52
2021/03/09 10:50:24;;;;;;;16.75;12.35;;;9.40;82.60;;;;;;5107327;27;20629;-52
2021/03/09 10:52:51;;;;;;;18.23;13.43;;;9.90;81.80;;;;;;5112526;27;20191;-52
2021/03/09 10:55:17;;;;;;;16.92;13.30;;;10.00;79.30;;;;;;5111469;27;20183;-52
2021/03/09 10:57:43;;;;;;;19.77;16.10;;;10.10;77.60;;;;;;5111256;27;20669;-53
2021/03/09 11:00:14;;;;;;;17.92;13.13;;;10.20;76.90;;;;;;5107014;28;20245;-53
2021/03/09 11:02:40;;;;;;;15.43;12.52;;;10.20;76.90;;;;;;5128443;27;20190;-52
2021/03/09 11:05:07;;;;;;;16.88;12.82;;;10.40;75.80;;;;;;5112006;27;20420;-52
2021/03/09 11:07:33;;;;;;;13.98;12.27;;;10.40;75.30;;;;;;5111328;27;20226;-53
2021/03/09 11:09:58;;;;;;;14.27;12.10;;;10.60;74.70;;;;;;5110997;27;20671;-52
2021/03/09 11:12:24;;;;;;;15.07;12.40;;;10.50;73.60;;;;;;5103185;28;20267;-52
2021/03/09 11:14:49;;;;;;;17.93;12.20;;;10.70;74.60;;;;;;5107920;28;20203;-52
2021/03/09 11:17:15;;;;;;;14.50;12.67;;;10.50;73.60;;;;;;5106998;28;20669;-51
2021/03/09 11:19:40;;;;;;;13.27;11.57;;;10.30;74.00;;;;;;5129985;28;20203;-50
2021/03/09 11:22:06;;;;;;;15.43;12.30;;;10.50;73.90;;;;;;5114841;27;20166;-52
2021/03/09 11:24:35;;;;;;;13.40;11.17;;;10.60;73.90;;;;;;5118373;27;20437;-52
2021/03/09 11:27:01;;;;;;;12.70;10.13;;;10.40;73.10;;;;;;5118058;27;20201;-52
2021/03/09 11:29:28;;;;;;;12.05;10.77;;;10.00;73.00;;;;;;5117163;27;20187;-52
2021/03/09 11:31:54;;;;;;;11.50;9.48;;;9.80;74.00;;;;;;5118495;27;20184;-52
2021/03/09 11:34:21;;;;;;;14.57;12.00;;;10.10;71.80;;;;;;5136750;27;20193;-52
2021/03/09 11:36:47;;;;;;;14.15;10.80;;;10.20;73.20;;;;;;5117678;27;21102;-52
2021/03/09 11:39:13;;;;;;;14.60;12.07;;;10.30;74.30;;;;;;5118083;27;20187;-52
2021/03/09 11:41:39;;;;;;;13.53;11.70;;;10.20;73.10;;;;;;5117323;27;20201;-52
2021/03/09 11:44:06;;;;;;;14.43;12.13;;;10.40;72.50;;;;;;5117938;27;20250;-52
2021/03/09 11:46:31;;;;;;;13.40;12.00;;;10.30;72.30;;;;;;5117192;27;20242;-52
2021/03/09 11:48:57;;;;;;;13.73;11.70;;;10.50;74.10;;;;;;5136487;27;20287;-53
2021/03/09 11:51:23;;;;;;;15.13;11.73;;;10.90;72.60;;;;;;5118406;27;20266;-53
2021/03/09 11:53:48;;;;;;;11.97;10.77;;;10.70;71.90;;;;;;5118126;27;20181;-52
2021/03/09 11:56:14;;;;;;;13.60;10.37;;;10.50;71.00;;;;;;5118333;27;20240;-52
2021/03/09 11:58:40;;;;;;;15.57;11.13;;;10.50;71.30;;;;;;5117787;27;20281;-51
2021/03/09 12:01:05;;;;;;;13.33;9.57;;;9.90;73.10;;;;;;5117920;27;20212;-53
2021/03/09 12:03:31;;;;;;;10.67;9.50;;;10.40;71.40;;;;;;5119115;27;20183;-53
2021/03/09 12:05:57;;;;;;;10.77;9.35;;;10.20;71.00;;;;;;5117440;27;20191;-53
2021/03/09 12:08:23;;;;;;;12.10;10.90;;;10.50;71.10;;;;;;5119031;27;20211;-52
2021/03/09 12:10:48;;;;;;;13.03;10.90;;;10.40;69.80;;;;;;5117883;27;20641;-53
2021/03/09 12:13:14;;;;;;;12.83;11.03;;;10.40;69.20;;;;;;5116675;27;20191;-51
2021/03/09 12:15:40;;;;;;;12.47;10.13;;;10.60;69.50;;;;;;5118258;27;20210;-54
2021/03/09 12:18:05;;;;;;;12.00;9.00;;;10.60;69.10;;;;;;5117740;27;20243;-51
2021/03/09 12:20:31;;;;;;;12.40;10.50;;;10.60;68.00;;;;;;5116771;27;20290;-51
2021/03/09 12:22:58;;;;;;;11.90;10.60;;;10.60;68.20;;;;;;5118618;27;20492;-53
2021/03/09 12:25:23;;;;;;;12.25;9.82;;;10.90;68.00;;;;;;5117366;27;20427;-51
2021/03/09 12:27:49;;;;;;;11.30;9.73;;;10.80;68.20;;;;;;5118034;27;20196;-51
2021/03/09 12:30:15;;;;;;;12.87;9.70;;;10.70;68.40;;;;;;5136303;27;20239;-51
2021/03/09 12:32:41;;;;;;;9.95;8.95;;;10.60;68.00;;;;;;5116894;27;20188;-51
2021/03/09 12:35:08;;;;;;;12.90;10.20;;;10.70;67.10;;;;;;5113870;27;20188;-51
2021/03/09 12:37:34;;;;;;;10.35;8.48;;;10.40;67.50;;;;;;5129550;27;20211;-52
2021/03/09 12:40:00;;;;;;;11.73;9.65;;;10.50;67.70;;;;;;5131630;27;20225;-52
2021/03/09 12:42:26;;;;;;;11.90;9.57;;;10.50;67.90;;;;;;5114475;27;20640;-52
2021/03/09 12:44:51;;;;;;;10.68;9.57;;;10.10;67.60;;;;;;5114222;27;20171;-52
2021/03/09 12:47:17;;;;;;;9.70;8.70;;;9.70;70.40;;;;;;5114144;27;20207;-52
2021/03/09 12:49:46;;;;;;;10.70;8.60;;;10.20;69.20;;;;;;5114087;27;20270;-52
2021/03/09 12:52:11;;;;;;;10.25;9.25;;;10.30;67.70;;;;;;5113364;27;20689;-53